Time;durP1;ratioP1;P1;durP2;ratioP2;P2;SDS_P1;SDS_P2;PMS_P1;PMS_P2;Temp;Humidity;BMP_temperature;BMP_pressure;BME280_temperature;BME280_humidity;BME280_pressure;Samples;Min_cycle;Max_cycle;Signal;HPM_P1;HPM_P2
2024/01/08 00:02:57;;;;;;;;;2.00;2.00;;;;;12.73;55.09;99892.47;146622;570;48010;-74
2024/01/08 00:05:53;;;;;;;;;1.00;0.50;;;;;12.77;54.21;99894.31;146623;574;46013;-70
2024/01/08 00:08:46;;;;;;;;;2.25;2.25;;;;;12.79;54.82;99886.56;146624;657;45020;-68
2024/01/08 00:11:41;;;;;;;;;0.50;0.50;;;;;12.84;53.58;99887.59;146622;579;46012;-69
2024/01/08 00:14:39;;;;;;;;;4.00;3.75;;;;;12.89;54.55;99897.25;146623;590;46010;-68
2024/01/08 00:17:33;;;;;;;;;1.75;0.25;;;;;12.91;53.54;99906.00;146614;591;47014;-65
2024/01/08 00:20:28;;;;;;;;;2.75;1.25;;;;;12.93;54.32;99909.53;146622;622;46010;-66
2024/01/08 00:23:31;;;;;;;;;2.25;2.25;;;;;12.95;54.64;99907.84;146622;602;46917;-66
2024/01/08 00:26:28;;;;;;;;;0.50;0.00;;;;;12.95;53.52;99919.97;146622;654;47020;-67
2024/01/08 00:29:20;;;;;;;;;0.00;0.00;;;;;12.94;54.09;99908.69;146612;580;46016;-68
2024/01/08 00:32:23;;;;;;;;;0.00;0.00;;;;;12.84;53.91;99892.78;146623;598;46010;-69
2024/01/08 00:35:30;;;;;;;;;0.00;0.00;;;;;12.90;55.06;99906.84;146619;586;45017;-69
2024/01/08 00:38:34;;;;;;;;;0.00;0.00;;;;;12.91;55.00;99908.59;146623;647;48010;-68
2024/01/08 00:41:37;;;;;;;;;0.00;0.00;;;;;12.92;55.38;99907.75;146619;689;45016;-66
2024/01/08 00:44:33;;;;;;;;;0.00;0.00;;;;;12.91;55.25;99903.41;146618;627;47010;-68
2024/01/08 00:47:29;;;;;;;;;5.00;4.25;;;;;12.89;55.30;99902.47;146618;573;46012;-69
2024/01/08 00:50:28;;;;;;;;;0.00;0.00;;;;;12.88;55.96;99913.72;146623;564;46011;-67
2024/01/08 00:53:24;;;;;;;;;0.33;0.00;;;;;12.82;55.57;99910.94;146616;579;47913;-70
2024/01/08 00:56:25;;;;;;;;;4.50;3.25;;;;;12.79;56.00;99908.25;146620;640;47013;-68
2024/01/08 00:59:24;;;;;;;;;0.00;0.00;;;;;12.77;55.54;99919.44;146620;615;45016;-68
2024/01/08 01:02:35;;;;;;;;;2.00;0.00;;;;;12.73;56.13;99921.06;146623;621;46020;-72
2024/01/08 01:05:38;;;;;;;;;;;;;;;;;;;;;
2024/01/08 01:08:43;;;;;;;;;0.00;0.00;;;;;12.71;55.50;99943.59;146640;578;45010;-69
2024/01/08 01:11:41;;;;;;;;;6.25;6.25;;;;;12.66;54.76;99934.75;146632;697;46012;-70
2024/01/08 01:14:38;;;;;;;;;1.50;1.50;;;;;12.59;55.21;99932.81;146638;564;45020;-69
2024/01/08 01:17:33;;;;;;;;;3.00;2.00;;;;;12.55;56.07;99923.13;146630;625;48012;-69
2024/01/08 01:20:31;;;;;;;;;0.00;0.00;;;;;12.51;55.71;99913.47;146636;576;46010;-70
2024/01/08 01:23:23;;;;;;;;;0.00;0.00;;;;;12.50;56.89;99948.13;146632;612;46917;-68
2024/01/08 01:26:16;;;;;;;;;0.00;0.00;;;;;12.51;56.62;99931.69;146637;611;45020;-70
2024/01/08 01:29:11;;;;;;;;;0.00;0.00;;;;;12.54;56.19;99943.06;146633;661;45016;-67
2024/01/08 01:32:07;;;;;;;;;0.00;0.00;;;;;12.55;56.44;99934.41;146638;574;46010;-68
2024/01/08 01:34:59;;;;;;;;;1.00;1.00;;;;;12.56;56.83;99936.19;146637;581;45013;-68
2024/01/08 01:38:04;;;;;;;;;;;;;;;;;;;;;
2024/01/08 01:40:59;;;;;;;;;1.75;1.75;;;;;12.54;56.02;99919.66;146636;711;45016;-71
2024/01/08 01:44:00;;;;;;;;;0.00;0.00;;;;;12.54;55.54;99918.78;146635;574;45021;-70
2024/01/08 01:47:00;;;;;;;;;0.00;0.00;;;;;12.50;56.04;99924.72;146629;671;46016;-72
2024/01/08 01:50:12;;;;;;;;;0.00;0.00;;;;;12.46;55.92;99915.91;146636;571;46021;-71
2024/01/08 01:53:13;;;;;;;;;0.00;0.00;;;;;10.71;56.03;99618.69;146634;638;46012;-73
2024/01/08 01:56:17;;;;;;;;;0.00;0.00;;;;;12.42;55.90;99904.53;146635;573;45015;-71
2024/01/08 01:59:17;;;;;;;;;0.25;0.00;;;;;12.41;55.72;99907.13;146631;579;46012;-71
2024/01/08 02:02:27;;;;;;;;;1.00;0.00;;;;;12.41;56.02;99904.53;146636;707;46029;-71
2024/01/08 02:05:25;;;;;;;;;0.00;0.00;;;;;12.35;55.03;99881.81;146637;592;45016;-71
2024/01/08 02:08:29;;;;;;;;;1.50;1.00;;;;;12.26;55.15;99884.13;146635;592;45020;-73
2024/01/08 02:11:28;;;;;;;;;0.00;0.00;;;;;12.22;55.62;99880.56;146640;600;46013;-71
2024/01/08 02:14:29;;;;;;;;;0.00;0.00;;;;;12.19;55.30;99890.84;146636;722;45020;-71
2024/01/08 02:17:24;;;;;;;;;0.00;0.00;;;;;12.21;55.80;99904.78;146637;621;45012;-70
2024/01/08 02:20:20;;;;;;;;;0.00;0.00;;;;;12.24;54.03;99898.78;146637;583;45010;-73
2024/01/08 02:23:15;;;;;;;;;0.00;0.00;;;;;12.26;55.02;99897.13;146636;563;45036;-71
2024/01/08 02:26:08;;;;;;;;;0.00;0.00;;;;;12.28;55.25;99884.19;146638;595;45011;-70
2024/01/08 02:29:09;;;;;;;;;0.00;0.00;;;;;12.27;55.97;99896.28;146631;661;46917;-72
2024/01/08 02:32:16;;;;;;;;;0.00;0.00;;;;;12.25;55.46;99883.25;146635;614;45036;-69
2024/01/08 02:35:14;;;;;;;;;0.00;0.00;;;;;12.23;54.91;99884.03;146632;583;46014;-72
2024/01/08 02:38:11;;;;;;;;;0.00;0.00;;;;;12.20;55.61;99891.72;146638;605;45020;-71
2024/01/08 02:41:13;;;;;;;;;0.00;0.00;;;;;12.17;55.89;99889.03;146636;580;45012;-71
2024/01/08 02:44:08;;;;;;;;;0.00;0.00;;;;;12.11;55.74;99900.13;146635;571;45023;-71
2024/01/08 02:47:17;;;;;;;;;0.25;0.25;;;;;12.03;56.28;99901.59;146637;568;46012;-70
2024/01/08 02:50:23;;;;;;;;;0.00;0.00;;;;;11.91;56.27;99890.81;146638;579;45020;-69
2024/01/08 02:53:20;;;;;;;;;0.00;0.00;;;;;11.82;56.28;99898.28;146636;576;45014;-71
2024/01/08 02:56:26;;;;;;;;;0.00;0.00;;;;;11.75;56.99;99904.97;146635;571;46021;-71
2024/01/08 02:59:32;;;;;;;;;;;;;;;;;;;;;
2024/01/08 03:02:29;;;;;;;;;0.00;0.00;;;;;11.78;56.73;99900.75;146636;563;45010;-73
2024/01/08 03:05:27;;;;;;;;;0.00;0.00;;;;;11.83;56.49;99900.91;146622;601;45017;-72
2024/01/08 03:08:31;;;;;;;;;0.00;0.00;;;;;11.86;56.14;99897.56;146622;585;45020;-72
2024/01/08 03:11:39;;;;;;;;;0.00;0.00;;;;;11.88;56.85;99916.69;146623;565;46013;-72
2024/01/08 03:14:45;;;;;;;;;0.00;0.00;;;;;11.86;56.53;99924.41;146621;603;46020;-72
2024/01/08 03:17:50;;;;;;;;;0.50;0.00;;;;;11.83;56.21;99934.66;146620;592;46015;-70
2024/01/08 03:20:43;;;;;;;;;0.00;0.00;;;;;11.79;56.21;99933.69;146622;608;46010;-69
2024/01/08 03:23:41;;;;;;;;;0.00;0.00;;;;;11.73;56.22;99935.19;146620;572;47012;-71
2024/01/08 03:26:33;;;;;;;;;0.00;0.00;;;;;11.68;56.64;99928.97;146625;649;46011;-71
2024/01/08 03:29:35;;;;;;;;;2.75;1.00;;;;;11.64;56.69;99934.88;146623;562;45042;-72
2024/01/08 03:32:35;;;;;;;;;0.00;0.00;;;;;11.59;56.68;99934.75;146622;581;46020;-72
2024/01/08 03:35:30;;;;;;;;;1.00;1.00;;;;;11.55;55.83;99936.31;146619;602;46919;-71
2024/01/08 03:38:27;;;;;;;;;2.00;1.25;;;;;11.47;55.73;99936.91;146627;650;45020;-71
2024/01/08 03:41:33;;;;;;;;;6.25;5.00;;;;;11.37;56.67;99956.47;146619;648;46919;-70
2024/01/08 03:44:40;;;;;;;;;6.75;5.00;;;;;11.30;57.25;99959.66;146624;621;46010;-72
2024/01/08 03:47:34;;;;;;;;;0.00;0.00;;;;;11.19;57.32;99971.37;146618;592;46017;-72
2024/01/08 03:50:33;;;;;;;;;0.25;0.00;;;;;11.06;57.18;99983.91;146625;582;45020;-70
2024/01/08 03:53:25;;;;;;;;;13.75;12.25;;;;;10.93;57.37;99997.22;146618;594;46016;-70
2024/01/08 03:56:20;;;;;;;;;0.25;0.25;;;;;10.81;58.00;99991.56;146620;582;46010;-71
2024/01/08 03:59:13;;;;;;;;;0.25;0.25;;;;;10.71;57.85;100000.69;146616;675;47016;-72
2024/01/08 04:02:07;;;;;;;;;1.50;1.50;;;;;10.55;58.16;99991.44;146620;583;46021;-72
2024/01/08 04:05:06;;;;;;;;;2.50;2.50;;;;;10.64;58.46;100019.44;146639;569;44919;-75
2024/01/08 04:08:06;;;;;;;;;11.00;10.25;;;;;10.58;58.68;100021.78;146634;626;45010;-73
2024/01/08 04:11:03;;;;;;;;;31.75;25.75;;;;;10.50;59.10;100033.53;146636;571;45017;-74
2024/01/08 04:14:03;;;;;;;;;16.50;14.50;;;;;10.43;59.63;100044.50;146638;629;44020;-73
2024/01/08 04:17:06;;;;;;;;;10.25;10.25;;;;;10.35;59.73;100041.59;146635;577;45010;-73
2024/01/08 04:20:01;;;;;;;;;1.25;0.75;;;;;10.23;59.98;100044.53;146634;662;46010;-72
2024/01/08 04:23:05;;;;;;;;;1.25;1.25;;;;;10.11;59.95;100044.91;146633;577;45016;-70
2024/01/08 04:25:57;;;;;;;;;1.75;1.75;;;;;10.09;60.25;100041.38;146645;564;45010;-69
2024/01/08 04:28:51;;;;;;;;;15.25;14.25;;;;;8.19;60.38;99707.22;146637;581;46014;-70
2024/01/08 04:31:57;;;;;;;;;8.25;8.00;;;;;5.88;60.49;99305.75;146637;565;45021;-69
2024/01/08 04:34:52;;;;;;;;;2.00;1.00;;;;;10.06;61.01;100046.44;146634;668;45918;-70
2024/01/08 04:37:48;;;;;;;;;2.75;2.50;;;;;10.08;60.83;100047.34;146637;718;46020;-71
2024/01/08 04:40:52;;;;;;;;;2.50;2.00;;;;;10.10;60.83;100043.13;146634;578;45011;-69
2024/01/08 04:43:56;;;;;;;;;10.75;9.25;;;;;10.14;61.04;100036.38;146636;598;45020;-69
2024/01/08 04:47:05;;;;;;;;;13.00;11.25;;;;;8.32;60.68;99727.63;146635;609;45010;-71
2024/01/08 04:50:08;;;;;;;;;;;;;;;;;;;;;
2024/01/08 04:53:04;;;;;;;;;3.00;3.00;;;;;10.15;60.72;100051.97;146635;570;45012;-69
2024/01/08 04:55:58;;;;;;;;;1.00;0.25;;;;;10.20;60.47;100066.84;146638;564;45026;-74
2024/01/08 04:58:57;;;;;;;;;6.50;6.00;;;;;10.22;60.23;100044.44;146634;609;45918;-73
2024/01/08 05:01:54;;;;;;;;;0.50;0.50;;;;;10.25;60.37;100066.22;146634;590;45010;-71
2024/01/08 05:05:05;;;;;;;;;4.50;4.50;;;;;10.29;60.41;100069.84;146620;613;45016;-72
2024/01/08 05:08:00;;;;;;;;;4.00;4.00;;;;;10.34;59.33;100050.16;146624;570;46010;-71
2024/01/08 05:11:02;;;;;;;;;7.00;4.50;;;;;10.35;59.63;100072.69;146618;657;46016;-70
2024/01/08 05:14:01;;;;;;;;;1.50;1.50;;;;;10.37;59.28;100066.75;146616;647;46030;-70
2024/01/08 05:16:56;;;;;;;;;5.25;4.50;;;;;10.41;59.16;100075.53;146608;575;47892;-69
2024/01/08 05:20:03;;;;;;;;;2.00;2.00;;;;;10.40;59.14;100076.34;146624;635;46010;-69
2024/01/08 05:22:55;;;;;;;;;3.00;1.50;;;;;10.38;57.70;100067.63;146620;586;47919;-69
2024/01/08 05:26:01;;;;;;;;;3.75;2.50;;;;;10.44;58.05;100077.37;146624;617;46020;-74
2024/01/08 05:28:54;;;;;;;;;35.50;31.00;;;;;10.50;59.00;100093.16;146616;563;47014;-70
2024/01/08 05:31:51;;;;;;;;;11.25;10.50;;;;;10.54;58.32;100103.72;146621;606;45021;-71
2024/01/08 05:34:56;;;;;;;;;;;;;;;;;;;;;
2024/01/08 05:37:50;;;;;;;;;4.75;4.75;;;;;10.54;58.56;100121.87;146618;664;47022;-71
2024/01/08 05:40:45;;;;;;;;;11.00;10.00;;;;;10.53;58.09;100120.12;146619;681;46035;-70
2024/01/08 05:43:43;;;;;;;;;18.00;14.75;;;;;10.53;58.28;100138.25;146615;612;46020;-70
2024/01/08 05:46:35;;;;;;;;;11.75;10.00;;;;;10.51;58.38;100142.50;146620;608;46016;-71
2024/01/08 05:49:35;;;;;;;;;9.00;6.75;;;;;10.50;58.77;100147.59;146620;647;46020;-71
2024/01/08 05:52:30;;;;;;;;;5.50;5.00;;;;;10.45;58.70;100150.00;146617;606;46017;-72
2024/01/08 05:55:24;;;;;;;;;7.50;6.25;;;;;10.40;59.29;100154.09;146624;578;46020;-70
2024/01/08 05:58:17;;;;;;;;;6.75;6.50;;;;;10.35;59.90;100147.84;146618;592;46016;-67
2024/01/08 06:01:19;;;;;;;;;6.25;5.75;;;;;10.42;59.62;100155.06;146618;620;47010;-69
2024/01/08 06:04:44;;;;;;;;;6.25;6.00;;;;;6.28;58.89;99448.34;146618;616;46917;-76
2024/01/08 06:07:48;;;;;;;;;23.50;21.25;;;;;10.48;59.44;100157.03;146622;576;46020;-70
2024/01/08 06:10:51;;;;;;;;;66.75;51.75;;;;;10.49;59.27;100172.63;146618;570;46012;-69
2024/01/08 06:13:50;;;;;;;;;17.50;16.00;;;;;10.48;59.38;100172.59;146616;592;45030;-68
2024/01/08 06:16:50;;;;;;;;;16.00;14.50;;;;;10.47;59.88;100181.19;146618;572;46016;-70
2024/01/08 06:19:51;;;;;;;;;37.75;30.75;;;;;10.47;59.70;100184.66;146618;610;46020;-72
2024/01/08 06:22:45;;;;;;;;;46.25;38.00;;;;;10.40;60.45;100169.66;146616;785;46016;-71
2024/01/08 06:25:40;;;;;;;;;15.25;15.00;;;;;10.58;59.48;100179.91;146619;602;46021;-70
2024/01/08 06:28:35;;;;;;;;;23.25;20.50;;;;;10.68;59.53;100196.75;146619;611;46012;-69
2024/01/08 06:31:27;;;;;;;;;13.00;11.00;;;;;10.80;59.64;100197.25;146619;564;46021;-70
2024/01/08 06:34:22;;;;;;;;;9.75;8.75;;;;;10.95;59.46;100186.66;146616;615;48012;-68
2024/01/08 06:37:14;;;;;;;;;8.00;7.00;;;;;11.19;59.29;100199.75;146622;551;46020;-70
2024/01/08 06:40:10;;;;;;;;;11.25;9.75;;;;;11.64;60.20;100191.97;146619;581;46016;-71
2024/01/08 06:43:02;;;;;;;;;15.50;15.50;;;;;12.54;59.85;100190.09;146621;568;47010;-70
2024/01/08 06:45:55;;;;;;;;;9.50;9.50;;;;;13.66;57.62;100185.06;146617;565;46031;-70
2024/01/08 06:48:50;;;;;;;;;10.75;8.25;;;;;13.08;53.10;99901.31;146621;670;46020;-74
2024/01/08 06:51:45;;;;;;;;;22.25;19.00;;;;;15.46;50.46;100186.41;146616;566;47012;-73
2024/01/08 06:54:39;;;;;;;;;32.50;27.75;;;;;15.97;49.55;100188.41;146619;581;46010;-73
2024/01/08 06:57:52;;;;;;;;;;;;;;;;;;;;;
2024/01/08 07:00:51;;;;;;;;;23.50;22.50;;;;;16.57;46.88;100200.94;146616;602;47010;-73
2024/01/08 07:03:43;;;;;;;;;18.50;17.75;;;;;16.61;47.32;100196.66;146616;576;47012;-75
2024/01/08 07:06:47;;;;;;;;;7.50;6.75;;;;;16.80;47.98;100197.88;146617;570;46020;-70
2024/01/08 07:09:42;;;;;;;;;3.25;2.50;;;;;17.22;47.30;100205.56;146616;608;47012;-71
2024/01/08 07:12:42;;;;;;;;;4.00;4.00;;;;;17.81;45.82;100209.09;146619;590;46010;-70
2024/01/08 07:15:54;;;;;;;;;4.75;4.00;;;;;18.30;47.26;100204.47;146620;666;46012;-77
2024/01/08 07:18:58;;;;;;;;;7.50;6.50;;;;;18.82;44.34;100212.94;146621;563;46020;-73
2024/01/08 07:21:56;;;;;;;;;37.00;29.75;;;;;19.33;43.58;100222.12;146617;592;47013;-72
2024/01/08 07:24:51;;;;;;;;;29.50;26.75;;;;;19.69;43.83;100221.53;146615;611;46020;-73
2024/01/08 07:27:48;;;;;;;;;16.25;14.50;;;;;20.08;42.24;100217.34;146614;664;46016;-70
2024/01/08 07:30:41;;;;;;;;;10.50;9.25;;;;;20.50;41.14;100223.66;146619;634;46020;-69
2024/01/08 07:33:42;;;;;;;;;8.50;8.00;;;;;20.85;40.77;100217.59;146620;642;46014;-69
2024/01/08 07:36:45;;;;;;;;;8.00;6.00;;;;;21.20;41.22;100218.47;146624;643;46021;-69
2024/01/08 07:39:40;;;;;;;;;6.33;6.00;;;;;21.43;39.07;100215.88;146619;658;46012;-70
2024/01/08 07:42:42;;;;;;;;;9.67;7.00;;;;;21.49;38.32;100200.91;146617;611;46010;-70
2024/01/08 07:45:40;;;;;;;;;4.00;3.67;;;;;21.54;38.25;100212.34;146621;637;46017;-67
2024/01/08 07:48:39;;;;;;;;;5.67;4.00;;;;;21.41;38.80;100220.28;146619;652;46020;-68
2024/01/08 07:51:31;;;;;;;;;5.67;4.00;;;;;21.28;38.19;100212.31;146616;647;48012;-72
2024/01/08 07:54:31;;;;;;;;;5.67;5.00;;;;;21.04;37.90;100219.38;146624;610;46020;-74
2024/01/08 07:57:25;;;;;;;;;5.33;5.00;;;;;20.72;38.99;100216.72;146618;642;46016;-71
2024/01/08 08:00:29;;;;;;;;;7.00;4.00;;;;;20.45;39.12;100214.84;146622;613;47010;-66
2024/01/08 08:03:31;;;;;;;;;5.00;4.00;;;;;20.19;39.88;100214.78;146618;594;46016;-69
2024/01/08 08:06:30;;;;;;;;;3.00;1.67;;;;;19.96;40.05;100209.38;146623;590;46010;-71
2024/01/08 08:09:32;;;;;;;;;3.67;3.00;;;;;19.70;40.28;100231.16;146622;644;46012;-71
2024/01/08 08:12:30;;;;;;;;;0.00;0.00;;;;;19.44;40.96;100235.31;146619;658;47010;-67
2024/01/08 08:15:24;;;;;;;;;0.67;0.67;;;;;19.23;40.85;100241.31;146620;591;47935;-70
2024/01/08 08:18:19;;;;;;;;;2.00;1.00;;;;;19.07;42.01;100245.56;146622;585;46020;-69
2024/01/08 08:21:14;;;;;;;;;9.00;7.00;;;;;18.95;40.79;100248.09;146622;621;46017;-70
2024/01/08 08:24:10;;;;;;;;;3.00;3.00;;;;;18.89;42.10;100251.53;146624;665;46010;-70
2024/01/08 08:27:02;;;;;;;;;4.67;4.67;;;;;18.88;41.67;100253.28;146620;660;46016;-69
2024/01/08 08:29:57;;;;;;;;;0.00;0.00;;;;;18.87;41.96;100251.50;146621;573;47012;-66
2024/01/08 08:32:58;;;;;;;;;0.67;0.00;;;;;16.61;42.92;99862.50;146621;567;46014;-66
2024/01/08 08:35:55;;;;;;;;;0.00;0.00;;;;;18.87;42.63;100254.13;146623;575;47010;-70
2024/01/08 08:38:50;;;;;;;;;0.33;0.00;;;;;18.89;41.51;100249.78;146621;588;47033;-68
2024/01/08 08:41:49;;;;;;;;;0.00;0.00;;;;;18.88;42.46;100257.66;146623;575;47010;-70
2024/01/08 08:44:49;;;;;;;;;0.00;0.00;;;;;18.90;43.25;100256.78;146618;575;47013;-69
2024/01/08 08:47:49;;;;;;;;;0.00;0.00;;;;;18.97;41.99;100255.13;146624;587;47010;-70
2024/01/08 08:50:42;;;;;;;;;0.00;0.00;;;;;19.00;41.82;100255.13;146620;564;46016;-69
2024/01/08 08:53:46;;;;;;;;;0.00;0.00;;;;;18.96;42.89;100255.09;146623;746;46010;-69
2024/01/08 08:56:40;;;;;;;;;;;;;;;;;;;;;
2024/01/08 08:59:47;;;;;;;;;2.00;1.00;;;;;18.98;43.15;100253.38;146624;592;46018;-68
2024/01/08 09:02:39;;;;;;;;;2.67;2.67;;;;;19.04;42.20;100249.03;146629;634;47010;-68
2024/01/08 09:05:37;;;;;;;;;1.00;1.00;;;;;19.10;42.06;100240.34;146622;632;46016;-67
2024/01/08 09:08:28;;;;;;;;;1.00;1.00;;;;;19.02;41.30;100234.13;146626;570;47010;-69
2024/01/08 09:11:24;;;;;;;;;3.00;2.00;;;;;18.95;42.59;100234.94;146621;571;47012;-69
2024/01/08 09:14:20;;;;;;;;;2.00;1.00;;;;;18.97;42.07;100227.94;146628;603;46020;-70
2024/01/08 09:17:23;;;;;;;;;1.00;1.00;;;;;19.03;43.96;100214.84;146621;673;46016;-70
2024/01/08 09:20:18;;;;;;;;;1.33;1.33;;;;;19.11;41.72;100229.81;146631;569;46010;-70
2024/01/08 09:23:22;;;;;;;;;0.33;0.33;;;;;19.12;42.47;100218.44;146626;571;46016;-69
2024/01/08 09:26:39;;;;;;;;;0.33;0.00;;;;;19.25;43.49;100226.41;146629;591;45574;-71
2024/01/08 09:29:36;;;;;;;;;0.67;0.67;;;;;19.29;41.53;100229.09;146625;633;46916;-71
2024/01/08 09:32:41;;;;;;;;;1.67;1.67;;;;;19.32;42.17;100223.87;146628;593;46020;-70
2024/01/08 09:35:39;;;;;;;;;0.33;0.33;;;;;19.47;41.25;100222.19;146622;579;47016;-70
2024/01/08 09:38:31;;;;;;;;;0.00;0.00;;;;;19.59;40.58;100219.66;146631;601;46010;-70
2024/01/08 09:41:29;;;;;;;;;2.67;2.33;;;;;19.67;40.90;100214.50;146620;646;48012;-70
2024/01/08 09:44:22;;;;;;;;;0.00;0.00;;;;;19.72;40.79;100218.00;146632;684;46010;-70
2024/01/08 09:47:26;;;;;;;;;1.00;0.00;;;;;19.78;39.65;100213.69;146625;661;46914;-70
2024/01/08 09:50:20;;;;;;;;;0.00;0.00;;;;;19.79;39.74;100198.78;146627;639;46010;-70
2024/01/08 09:53:18;;;;;;;;;0.00;0.00;;;;;19.85;40.51;100209.34;146624;628;47012;-70
2024/01/08 09:56:17;;;;;;;;;0.00;0.00;;;;;19.90;40.60;100202.34;146622;603;47021;-70
2024/01/08 09:59:09;;;;;;;;;0.00;0.00;;;;;19.93;39.54;100198.84;146620;633;46016;-70
2024/01/08 10:02:11;;;;;;;;;0.00;0.00;;;;;19.89;38.86;100190.06;146622;585;46020;-69
2024/01/08 10:05:31;;;;;;;;;0.00;0.00;;;;;19.80;40.37;100183.00;146617;703;46016;-70
2024/01/08 10:08:24;;;;;;;;;1.00;1.00;;;;;19.83;39.18;100182.13;146622;571;46010;-71
2024/01/08 10:11:27;;;;;;;;;0.33;0.33;;;;;19.91;39.59;100190.97;146617;571;46016;-71
2024/01/08 10:14:23;;;;;;;;;0.00;0.00;;;;;19.98;37.52;100189.22;146621;690;46020;-70
2024/01/08 10:17:22;;;;;;;;;4.67;4.67;;;;;19.97;38.79;100188.34;146619;566;46914;-70
2024/01/08 10:20:22;;;;;;;;;1.33;0.00;;;;;19.96;39.82;100197.09;146619;569;47010;-69
2024/01/08 10:23:20;;;;;;;;;0.00;0.00;;;;;19.95;39.98;100199.75;146615;616;47914;-70
2024/01/08 10:26:19;;;;;;;;;1.00;1.00;;;;;19.81;39.28;100194.41;146621;570;46919;-69
2024/01/08 10:29:19;;;;;;;;;8.33;7.67;;;;;19.56;40.15;100194.25;146618;599;47016;-72
2024/01/08 10:32:17;;;;;;;;;0.67;0.00;;;;;19.49;38.05;100195.06;146623;576;47020;-71
2024/01/08 10:35:18;;;;;;;;;0.33;0.33;;;;;19.50;40.08;100185.41;146620;570;46016;-70
2024/01/08 10:38:11;;;;;;;;;0.67;0.00;;;;;19.51;37.27;100182.81;146621;584;47010;-70
2024/01/08 10:41:04;;;;;;;;;5.67;5.67;;;;;19.55;39.84;100184.56;146622;565;46014;-71
2024/01/08 10:43:59;;;;;;;;;0.00;0.00;;;;;19.63;39.66;100176.75;146624;573;46010;-71
2024/01/08 10:47:32;;;;;;;;;0.33;0.33;;;;;19.67;41.77;100178.53;146618;661;46015;-69
2024/01/08 10:50:50;;;;;;;;;0.00;0.00;;;;;19.65;40.93;100175.03;146622;581;46010;-69
2024/01/08 10:53:53;;;;;;;;;0.00;0.00;;;;;16.99;37.21;99733.78;146616;688;47016;-70
2024/01/08 10:56:48;;;;;;;;;1.00;0.00;;;;;19.49;36.42;100181.91;146644;585;45020;-68
2024/01/08 10:59:45;;;;;;;;;0.00;0.00;;;;;19.35;37.90;100189.72;146639;676;46012;-69
2024/01/08 11:02:47;;;;;;;;;0.00;0.00;;;;;19.19;37.51;100177.34;146644;570;45020;-70
2024/01/08 11:05:52;;;;;;;;;0.00;0.00;;;;;18.96;41.07;100173.63;146643;569;45012;-71
2024/01/08 11:08:45;;;;;;;;;0.00;0.00;;;;;18.87;40.59;100171.81;146643;601;46010;-70
2024/01/08 11:11:52;;;;;;;;;1.67;0.33;;;;;18.88;39.45;100176.22;146639;600;46915;-69
2024/01/08 11:14:49;;;;;;;;;2.00;0.00;;;;;18.66;38.41;100165.47;146640;624;45037;-69
2024/01/08 11:17:55;;;;;;;;;0.00;0.00;;;;;18.38;38.44;100168.66;146639;633;46012;-71
2024/01/08 11:21:07;;;;;;;;;;;;;;;;;;;;;
2024/01/08 11:24:05;;;;;;;;;1.33;1.00;;;;;18.21;40.32;100161.50;146636;575;45913;-69
2024/01/08 11:27:14;;;;;;;;;1.00;1.00;;;;;18.24;41.05;100163.28;146648;581;45010;-71
2024/01/08 11:30:13;;;;;;;;;1.00;1.00;;;;;18.35;40.12;100163.38;146642;651;45915;-70
2024/01/08 11:33:58;;;;;;;;;2.00;1.00;;;;;18.41;43.32;100150.31;146639;630;47919;-72
2024/01/08 11:37:02;;;;;;;;;2.33;2.00;;;;;18.54;39.35;100159.22;146639;569;45016;-73
2024/01/08 11:39:57;;;;;;;;;2.00;1.67;;;;;18.54;39.91;100154.84;146644;585;45011;-72
2024/01/08 11:42:53;;;;;;;;;0.67;0.00;;;;;18.39;40.11;100163.44;146637;581;45914;-70
2024/01/08 11:45:47;;;;;;;;;3.00;2.00;;;;;18.25;40.86;100165.03;146640;600;45020;-70
2024/01/08 11:48:44;;;;;;;;;2.00;1.00;;;;;17.97;40.75;100176.94;146638;591;46016;-69
2024/01/08 11:51:49;;;;;;;;;2.33;1.00;;;;;17.51;41.84;100171.06;146643;617;46010;-69
2024/01/08 11:54:48;;;;;;;;;1.67;1.67;;;;;17.10;43.46;100176.53;146633;581;47016;-71
2024/01/08 11:57:44;;;;;;;;;5.33;3.33;;;;;16.95;43.65;100185.06;146621;690;46010;-69
2024/01/08 12:00:48;;;;;;;;;3.33;2.67;;;;;16.81;45.03;100173.47;146620;638;46012;-70
2024/01/08 12:03:43;;;;;;;;;6.00;4.67;;;;;16.63;45.40;100181.81;146625;647;47010;-70
2024/01/08 12:06:35;;;;;;;;;3.33;3.00;;;;;16.43;45.50;100176.25;146621;565;46016;-70
2024/01/08 12:09:26;;;;;;;;;4.00;2.25;;;;;16.29;46.01;100170.75;146622;607;46010;-70
2024/01/08 12:12:24;;;;;;;;;1.00;1.00;;;;;16.25;46.82;100178.50;146618;593;46014;-71
2024/01/08 12:15:19;;;;;;;;;1.33;1.00;;;;;16.25;46.82;100176.75;146622;579;46020;-70
2024/01/08 12:18:18;;;;;;;;;1.67;1.33;;;;;16.33;46.68;100182.16;146621;593;46012;-70
2024/01/08 12:21:10;;;;;;;;;1.00;0.00;;;;;16.52;44.91;100183.37;146622;582;46014;-70
2024/01/08 12:24:14;;;;;;;;;0.67;0.00;;;;;16.80;44.26;100176.94;146620;618;46017;-71
2024/01/08 12:27:21;;;;;;;;;1.33;0.33;;;;;17.14;44.92;100172.28;146623;653;47010;-71
2024/01/08 12:30:27;;;;;;;;;3.00;1.00;;;;;17.46;44.39;100164.88;146618;626;46014;-71
2024/01/08 12:33:28;;;;;;;;;3.67;3.00;;;;;17.83;43.15;100166.28;146623;625;47014;-71
2024/01/08 12:36:21;;;;;;;;;2.33;2.33;;;;;18.25;41.38;100157.16;146620;569;46012;-73
2024/01/08 12:39:16;;;;;;;;;2.00;2.00;;;;;18.51;40.20;100153.94;146623;583;46014;-72
2024/01/08 12:42:20;;;;;;;;;1.67;1.00;;;;;18.64;38.05;100161.06;146620;593;47012;-70
2024/01/08 12:45:15;;;;;;;;;3.67;2.00;;;;;18.74;37.15;100160.31;146624;570;46020;-69
2024/01/08 12:48:14;;;;;;;;;3.00;2.00;;;;;18.89;38.51;100156.94;146614;578;47016;-70
2024/01/08 12:51:27;;;;;;;;;2.00;1.67;;;;;17.43;38.24;99851.22;146626;587;47010;-71
2024/01/08 12:54:35;;;;;;;;;3.33;3.00;;;;;19.29;38.16;100149.37;146620;586;46016;-72
2024/01/08 12:57:30;;;;;;;;;9.33;9.00;;;;;19.47;37.68;100151.22;146621;587;47010;-71
2024/01/08 13:00:36;;;;;;;;;2.00;0.67;;;;;19.66;39.67;100147.88;146613;641;48021;-70
2024/01/08 13:03:30;;;;;;;;;8.33;8.33;;;;;19.90;37.56;100164.62;146620;627;46037;-72
2024/01/08 13:06:25;;;;;;;;;6.00;4.00;;;;;19.97;35.96;100167.31;146616;578;46016;-71
2024/01/08 13:09:17;;;;;;;;;1.00;1.00;;;;;19.94;37.62;100174.31;146620;590;46021;-72
2024/01/08 13:12:17;;;;;;;;;1.33;1.33;;;;;19.80;39.89;100164.56;146618;573;47012;-70
2024/01/08 13:15:19;;;;;;;;;4.00;3.33;;;;;19.88;39.47;100175.16;146623;571;46010;-71
2024/01/08 13:18:24;;;;;;;;;2.67;2.00;;;;;20.02;36.83;100169.94;146618;706;47012;-70
2024/01/08 13:21:24;;;;;;;;;4.00;2.00;;;;;20.14;36.11;100172.63;146623;578;46997;-70
2024/01/08 13:24:22;;;;;;;;;3.67;2.00;;;;;20.40;36.25;100166.53;146619;587;46016;-71
2024/01/08 13:27:15;;;;;;;;;1.00;0.00;;;;;20.48;34.82;100162.19;146624;563;47020;-70
2024/01/08 13:30:29;;;;;;;;;2.00;2.00;;;;;20.43;34.96;100169.19;146617;644;46016;-69
2024/01/08 13:33:28;;;;;;;;;1.00;1.00;;;;;20.46;35.38;100172.69;146622;613;46021;-71
2024/01/08 13:36:23;;;;;;;;;0.00;0.00;;;;;20.59;36.46;100168.41;146620;589;46012;-72
2024/01/08 13:39:17;;;;;;;;;0.00;0.00;;;;;20.74;33.87;100173.66;146625;569;47010;-73
2024/01/08 13:42:15;;;;;;;;;1.00;1.00;;;;;20.73;35.37;100182.44;146617;577;47012;-71
2024/01/08 13:45:20;;;;;;;;;0.00;0.00;;;;;20.82;36.50;100181.59;146624;593;46021;-72
2024/01/08 13:48:12;;;;;;;;;3.00;2.00;;;;;20.99;37.02;100179.81;146620;670;47012;-71
2024/01/08 13:51:04;;;;;;;;;0.33;0.33;;;;;21.08;35.73;100185.97;146624;620;46010;-70
2024/01/08 13:54:08;;;;;;;;;6.00;6.00;;;;;21.07;36.26;100190.38;146619;646;46916;-70
2024/01/08 13:57:08;;;;;;;;;6.00;6.00;;;;;21.16;36.63;100190.38;146638;574;45020;-71
2024/01/08 14:00:17;;;;;;;;;2.00;1.00;;;;;19.04;39.76;99805.00;146633;690;45016;-71
2024/01/08 14:03:15;;;;;;;;;5.00;3.67;;;;;21.41;37.82;100193.03;146640;632;45020;-71
2024/01/08 14:06:08;;;;;;;;;14.00;11.50;;;;;21.52;35.45;100188.59;146630;600;46044;-70
2024/01/08 14:09:03;;;;;;;;;15.00;14.50;;;;;21.42;36.24;100189.50;146636;597;46011;-70